createdAt,value
2019-02-19T00:02:28.452Z,100697.16
2019-02-19T00:04:57.163Z,100702.75
2019-02-19T00:07:25.802Z,100703.84
2019-02-19T00:09:54.602Z,100700.36
2019-02-19T00:12:23.230Z,100708.10
2019-02-19T00:14:51.831Z,100714.28
2019-02-19T00:17:20.540Z,100705.13
2019-02-19T00:19:49.154Z,100704.77
2019-02-19T00:22:17.806Z,100706.14
2019-02-19T00:24:46.552Z,100713.59
2019-02-19T00:27:15.252Z,100716.77
2019-02-19T00:29:43.859Z,100714.22
2019-02-19T00:32:12.494Z,100711.05
2019-02-19T00:34:41.102Z,100711.38
2019-02-19T00:37:09.903Z,100712.16
2019-02-19T00:39:38.460Z,100701.40
2019-02-19T00:42:07.076Z,100706.66
2019-02-19T00:44:35.710Z,100703.73
2019-02-19T00:47:04.328Z,100715.00
2019-02-19T00:49:32.928Z,100715.14
2019-02-19T00:52:01.554Z,100714.91
2019-02-19T00:54:30.176Z,100715.23
2019-02-19T00:56:58.803Z,100710.82
2019-02-19T00:59:27.417Z,100709.73
2019-02-19T01:01:56.064Z,100707.53
2019-02-19T01:04:24.738Z,100711.75
2019-02-19T01:06:53.365Z,100706.82
2019-02-19T01:09:21.986Z,100711.57
2019-02-19T01:14:24.730Z,100707.39
2019-02-19T01:16:53.348Z,100715.33
2019-02-19T01:19:21.977Z,100717.03
2019-02-19T01:21:50.623Z,100715.63
2019-02-19T01:24:19.237Z,100712.75
2019-02-19T01:26:47.854Z,100713.20
2019-02-19T01:29:16.475Z,100714.19
2019-02-19T01:31:45.099Z,100715.50
2019-02-19T01:34:13.741Z,100715.67
2019-02-19T01:36:42.386Z,100711.14
2019-02-19T01:39:11.015Z,100705.58
2019-02-19T01:41:39.623Z,100701.97
2019-02-19T01:44:08.258Z,100708.72
2019-02-19T01:46:36.881Z,100706.08
2019-02-19T01:49:05.598Z,100714.14
2019-02-19T01:51:34.221Z,100708.52
2019-02-19T01:54:02.839Z,100708.34
2019-02-19T01:56:31.449Z,100708.95
2019-02-19T01:59:00.084Z,100710.70
2019-02-19T02:01:28.701Z,100711.52
2019-02-19T02:03:57.334Z,100708.17
2019-02-19T02:06:25.955Z,100710.48
2019-02-19T02:08:54.583Z,100705.45
2019-02-19T02:11:23.204Z,100706.91
2019-02-19T02:13:51.833Z,100702.82
2019-02-19T02:16:20.455Z,100698.64
2019-02-19T02:18:49.083Z,100703.91
2019-02-19T02:21:17.679Z,100703.16
2019-02-19T02:23:46.325Z,100697.08
2019-02-19T02:26:14.938Z,100696.23
2019-02-19T02:28:43.555Z,100697.17
2019-02-19T02:31:12.249Z,100686.03
2019-02-19T02:33:40.853Z,100686.66
2019-02-19T02:36:09.497Z,100691.31
2019-02-19T02:38:38.123Z,100689.66
2019-02-19T02:41:06.769Z,100686.04
2019-02-19T02:43:35.387Z,100680.86
2019-02-19T02:46:04.124Z,100680.72
2019-02-19T02:48:32.773Z,100676.12
2019-02-19T02:51:01.367Z,100688.47
2019-02-19T02:53:29.995Z,100695.14
2019-02-19T02:55:58.622Z,100692.13
2019-02-19T02:58:27.237Z,100689.70
2019-02-19T03:00:55.864Z,100689.28
2019-02-19T03:03:24.479Z,100693.47
2019-02-19T03:06:31.334Z,100687.25
2019-02-19T03:08:59.945Z,100692.86
2019-02-19T03:11:28.640Z,100686.36
2019-02-19T03:13:57.317Z,100686.06
2019-02-19T03:16:25.935Z,100685.45
2019-02-19T03:18:54.573Z,100690.11
2019-02-19T03:21:23.198Z,100693.45
2019-02-19T03:23:51.881Z,100692.05
2019-02-19T03:26:20.502Z,100684.78
2019-02-19T03:28:49.262Z,100688.97
2019-02-19T03:31:17.923Z,100689.64
2019-02-19T03:33:46.541Z,100688.80
2019-02-19T03:36:15.171Z,100696.27
2019-02-19T03:38:43.784Z,100688.16
2019-02-19T03:41:12.413Z,100700.14
2019-02-19T03:43:41.027Z,100709.22
2019-02-19T03:46:12.472Z,100699.73
2019-02-19T03:48:40.029Z,100701.80
2019-02-19T03:51:08.655Z,100703.92
2019-02-19T03:53:37.305Z,100702.80
2019-02-19T03:56:05.996Z,100706.05
2019-02-19T03:58:34.678Z,100701.63
2019-02-19T04:01:03.349Z,100705.84
2019-02-19T04:03:32.053Z,100710.16
2019-02-19T04:06:00.733Z,100718.64
2019-02-19T04:08:29.400Z,100715.27
2019-02-19T04:10:58.013Z,100713.20
2019-02-19T04:13:26.645Z,100717.28
2019-02-19T04:15:55.251Z,100716.34
2019-02-19T04:18:23.887Z,100705.41
2019-02-19T04:20:52.549Z,100709.86
2019-02-19T04:23:21.173Z,100711.08
2019-02-19T04:25:49.798Z,100707.50
2019-02-19T04:28:18.443Z,100713.61
2019-02-19T04:30:47.051Z,100714.59
2019-02-19T04:33:15.687Z,100711.85
2019-02-19T04:35:44.346Z,100715.91
2019-02-19T04:38:12.972Z,100723.19
2019-02-19T04:40:41.600Z,100724.34
2019-02-19T04:43:10.239Z,100725.86
2019-02-19T04:45:38.833Z,100719.00
2019-02-19T04:48:07.453Z,100719.81
2019-02-19T04:50:36.073Z,100717.98
2019-02-19T04:53:04.710Z,100723.70
2019-02-19T04:55:33.334Z,100728.25
2019-02-19T04:58:01.985Z,100726.06
2019-02-19T05:00:30.743Z,100717.11
2019-02-19T05:02:59.360Z,100715.38
2019-02-19T05:05:27.991Z,100718.16
2019-02-19T05:07:56.606Z,100707.57
2019-02-19T05:10:25.223Z,100716.05
2019-02-19T05:12:53.841Z,100721.69
2019-02-19T05:15:22.492Z,100725.31
2019-02-19T05:17:51.203Z,100729.88
2019-02-19T05:20:19.857Z,100734.26
2019-02-19T05:22:48.533Z,100735.24
2019-02-19T05:25:17.211Z,100732.12
2019-02-19T05:27:45.919Z,100742.86
2019-02-19T05:30:14.584Z,100742.80
2019-02-19T05:32:43.216Z,100745.23
2019-02-19T05:35:11.933Z,100750.27
2019-02-19T05:37:40.604Z,100757.20
2019-02-19T05:40:09.546Z,100752.25
2019-02-19T05:42:38.259Z,100747.34
2019-02-19T05:45:07.135Z,100743.94
2019-02-19T05:47:35.940Z,100738.07
2019-02-19T05:50:04.691Z,100722.75
2019-02-19T05:52:33.388Z,100729.96
2019-02-19T05:55:02.011Z,100732.59
2019-02-19T05:57:30.681Z,100732.69
2019-02-19T05:59:59.293Z,100729.00
2019-02-19T06:02:27.999Z,100727.12
2019-02-19T06:04:56.620Z,100730.91
2019-02-19T06:07:25.246Z,100725.78
2019-02-19T06:09:53.932Z,100724.61
2019-02-19T06:12:22.565Z,100726.88
2019-02-19T06:14:51.195Z,100731.05
2019-02-19T06:17:19.825Z,100735.97
2019-02-19T06:19:48.452Z,100747.13
2019-02-19T06:22:17.070Z,100752.77
2019-02-19T06:27:21.379Z,100761.89
2019-02-19T06:29:49.994Z,100761.91
2019-02-19T06:32:18.621Z,100756.46
2019-02-19T06:34:47.250Z,100751.80
2019-02-19T06:37:15.878Z,100754.05
2019-02-19T06:39:44.496Z,100760.66
2019-02-19T06:42:13.114Z,100761.98
2019-02-19T06:44:41.809Z,100760.12
2019-02-19T06:47:10.441Z,100774.09
2019-02-19T06:49:39.152Z,100782.45
2019-02-19T06:52:07.832Z,100783.70
2019-02-19T06:54:36.468Z,100788.59
2019-02-19T06:57:05.120Z,100797.23
2019-02-19T06:59:33.768Z,100798.22
2019-02-19T07:02:21.373Z,100798.35
2019-02-19T07:05:09.023Z,100801.33
2019-02-19T07:07:37.659Z,100798.60
2019-02-19T07:10:06.561Z,100804.59
2019-02-19T07:12:35.195Z,100808.14
2019-02-19T07:15:04.178Z,100816.78
2019-02-19T07:17:32.795Z,100814.89
2019-02-19T07:20:01.424Z,100814.03
2019-02-19T07:22:30.037Z,100807.89
2019-02-19T07:24:58.671Z,100812.02
2019-02-19T07:27:27.281Z,100819.04
2019-02-19T07:29:55.921Z,100830.26
2019-02-19T07:32:24.537Z,100838.32
2019-02-19T07:34:53.170Z,100836.64
2019-02-19T07:37:21.784Z,100831.80
2019-02-19T07:39:50.407Z,100820.44
2019-02-19T07:42:19.030Z,100829.91
2019-02-19T07:44:47.660Z,100837.00
2019-02-19T07:47:24.246Z,100844.13
2019-02-19T07:49:46.647Z,100849.60
2019-02-19T07:52:15.278Z,100845.78
2019-02-19T07:54:44.040Z,100855.86
2019-02-19T07:57:12.661Z,100856.79
2019-02-19T07:59:41.279Z,100864.37
2019-02-19T08:02:09.922Z,100871.05
2019-02-19T08:04:38.547Z,100884.97
2019-02-19T08:07:07.254Z,100893.20
2019-02-19T08:09:35.952Z,100885.95
2019-02-19T08:12:04.578Z,100899.61
2019-02-19T08:14:33.202Z,100892.20
2019-02-19T08:17:01.901Z,100900.95
2019-02-19T08:19:30.521Z,100898.13
2019-02-19T08:21:59.183Z,100906.81
2019-02-19T08:24:27.801Z,100906.81
2019-02-19T08:26:56.450Z,100910.48
2019-02-19T08:29:25.076Z,100910.97
2019-02-19T08:31:53.717Z,100917.31
2019-02-19T08:34:22.404Z,100920.23
2019-02-19T08:36:51.036Z,100923.09
2019-02-19T08:39:19.658Z,100931.89
2019-02-19T08:41:48.266Z,100935.55
2019-02-19T08:44:16.891Z,100939.20
2019-02-19T08:46:45.528Z,100940.73
2019-02-19T08:49:14.154Z,100946.72
2019-02-19T08:51:42.775Z,100942.11
2019-02-19T08:54:11.414Z,100947.47
2019-02-19T08:56:40.031Z,100948.16
2019-02-19T08:59:08.663Z,100946.72
2019-02-19T09:01:37.378Z,100944.51
2019-02-19T09:04:06.022Z,100953.77
2019-02-19T09:06:34.650Z,100957.27
2019-02-19T09:11:39.203Z,100960.39
2019-02-19T09:14:07.843Z,100959.77
2019-02-19T09:16:36.543Z,100952.63
2019-02-19T09:19:05.264Z,100948.42
2019-02-19T09:21:33.877Z,100957.06
2019-02-19T09:24:09.226Z,100960.39
2019-02-19T09:26:32.898Z,100957.11
2019-02-19T09:29:01.534Z,100960.50
2019-02-19T09:31:30.170Z,100958.71
2019-02-19T09:33:58.807Z,100962.52
2019-02-19T09:36:27.442Z,100963.33
2019-02-19T09:38:56.083Z,100954.61
2019-02-19T09:41:24.702Z,100960.14
2019-02-19T09:43:53.381Z,100957.70
2019-02-19T09:46:22.029Z,100951.66
2019-02-19T09:48:50.697Z,100951.38
2019-02-19T09:51:19.351Z,100942.14
2019-02-19T09:53:47.984Z,100946.55
2019-02-19T09:56:16.615Z,100949.15
2019-02-19T09:58:45.228Z,100950.34
2019-02-19T10:01:13.956Z,100956.82
2019-02-19T10:03:42.584Z,100957.97
2019-02-19T10:06:11.211Z,100950.48
2019-02-19T10:08:39.835Z,100958.84
2019-02-19T10:11:08.494Z,100959.84
2019-02-19T10:13:37.115Z,100967.70
2019-02-19T10:16:05.819Z,100970.31
2019-02-19T10:18:34.478Z,100970.19
2019-02-19T10:21:03.113Z,100981.38
2019-02-19T10:23:31.756Z,100986.58
2019-02-19T10:26:00.363Z,100987.88
2019-02-19T10:28:28.988Z,100987.40
2019-02-19T10:30:57.674Z,100976.92
2019-02-19T10:33:26.330Z,100982.07
2019-02-19T10:35:54.957Z,100990.31
2019-02-19T10:38:23.586Z,100987.50
2019-02-19T10:40:52.311Z,100988.58
2019-02-19T10:43:20.924Z,100992.38
2019-02-19T10:45:49.573Z,100990.85
2019-02-19T10:48:19.254Z,100995.65
2019-02-19T10:50:48.604Z,100999.95
2019-02-19T10:53:17.279Z,101002.16
2019-02-19T10:55:45.902Z,101003.70
2019-02-19T10:58:22.629Z,101005.70
2019-02-19T11:00:45.035Z,101007.89
2019-02-19T11:03:13.659Z,101001.94
2019-02-19T11:05:42.430Z,100991.69
2019-02-19T11:08:11.087Z,100993.34
2019-02-19T11:10:39.711Z,100990.05
2019-02-19T11:13:08.339Z,100998.11
2019-02-19T11:15:36.963Z,100988.90
2019-02-19T11:18:05.606Z,100990.13
2019-02-19T11:20:34.305Z,100994.88
2019-02-19T11:23:02.926Z,100983.92
2019-02-19T11:25:31.547Z,100989.47
2019-02-19T11:28:00.190Z,100983.87
2019-02-19T11:30:28.938Z,100976.55
2019-02-19T11:32:57.573Z,100988.02
2019-02-19T11:35:26.266Z,100978.73
2019-02-19T11:37:54.897Z,100978.70
2019-02-19T11:40:23.590Z,100979.75
2019-02-19T11:42:52.216Z,100988.34
2019-02-19T11:45:20.933Z,100982.52
2019-02-19T11:47:49.576Z,100983.20
2019-02-19T11:50:18.232Z,100979.91
2019-02-19T11:52:46.840Z,100968.94
2019-02-19T11:55:15.487Z,100968.42
2019-02-19T11:58:03.331Z,100964.64
2019-02-19T12:00:34.955Z,100969.84
2019-02-19T12:03:03.694Z,100960.03
2019-02-19T12:05:32.390Z,100956.53
2019-02-19T12:08:01.069Z,100958.87
2019-02-19T12:10:29.704Z,100961.70
2019-02-19T12:12:58.369Z,100961.22
2019-02-19T12:15:34.912Z,100952.67
2019-02-19T12:17:57.381Z,100952.02
2019-02-19T12:20:26.031Z,100945.96
2019-02-19T12:22:54.639Z,100949.58
2019-02-19T12:25:23.388Z,100952.73
2019-02-19T12:27:52.003Z,100940.96
2019-02-19T12:30:20.749Z,100935.25
2019-02-19T12:32:49.368Z,100939.56
2019-02-19T12:35:18.090Z,100939.37
2019-02-19T12:37:46.729Z,100946.77
2019-02-19T12:40:15.489Z,100940.02
2019-02-19T12:42:44.106Z,100938.34
2019-02-19T12:45:12.832Z,100942.89
2019-02-19T12:47:41.475Z,100937.73
2019-02-19T12:50:11.519Z,100930.72
2019-02-19T12:52:40.233Z,100925.16
2019-02-19T12:55:09.653Z,100922.67
2019-02-19T12:57:38.318Z,100917.36
2019-02-19T13:00:09.537Z,100914.59
2019-02-19T13:02:38.202Z,100921.83
2019-02-19T13:05:08.326Z,100909.41
2019-02-19T13:07:37.029Z,100918.34
2019-02-19T13:10:05.827Z,100911.54
2019-02-19T13:12:34.439Z,100904.39
2019-02-19T13:15:03.068Z,100901.48
2019-02-19T13:17:34.745Z,100898.28
2019-02-19T13:20:03.525Z,100893.97
2019-02-19T13:22:32.162Z,100895.12
2019-02-19T13:25:00.767Z,100888.03
2019-02-19T13:27:29.521Z,100889.30
2019-02-19T13:29:58.176Z,100888.58
2019-02-19T13:32:26.786Z,100888.78
2019-02-19T13:34:55.394Z,100888.02
2019-02-19T13:37:24.012Z,100886.22
2019-02-19T13:39:52.648Z,100893.44
2019-02-19T13:42:21.396Z,100892.40
2019-02-19T13:45:09.792Z,100885.03
2019-02-19T13:47:38.529Z,100888.58
2019-02-19T13:50:09.763Z,100892.34
2019-02-19T13:52:57.412Z,100893.80
2019-02-19T13:55:29.682Z,100885.88
2019-02-19T13:57:58.296Z,100893.45
2019-02-19T14:03:16.348Z,100899.22
2019-02-19T14:05:44.947Z,100903.38
2019-02-19T14:08:14.777Z,100890.59
2019-02-19T14:10:43.982Z,100905.52
2019-02-19T14:13:12.608Z,100909.09
2019-02-19T14:16:00.316Z,100908.50
2019-02-19T14:22:02.324Z,100909.02
2019-02-19T14:24:42.859Z,100912.01
2019-02-19T14:27:30.471Z,100915.73
2019-02-19T14:30:18.151Z,100917.31
2019-02-19T14:33:05.742Z,100919.30
2019-02-19T14:35:53.367Z,100915.98
2019-02-19T14:38:41.028Z,100920.19
2019-02-19T14:41:28.740Z,100913.30
2019-02-19T14:44:08.458Z,100914.69
2019-02-19T14:46:56.168Z,100915.43
2019-02-19T14:49:47.306Z,100913.75
2019-02-19T14:52:33.248Z,100910.67
2019-02-19T14:55:20.872Z,100910.48
2019-02-19T14:58:06.617Z,100909.09
2019-02-19T15:00:54.417Z,100912.36
2019-02-19T15:03:42.032Z,100902.25
2019-02-19T15:06:29.647Z,100903.19
2019-02-19T15:09:17.288Z,100899.52
2019-02-19T15:12:04.948Z,100892.28
2019-02-19T15:14:52.599Z,100890.99
2019-02-19T15:17:40.229Z,100892.88
2019-02-19T15:20:27.952Z,100898.43
2019-02-19T15:23:15.594Z,100895.45
2019-02-19T15:26:03.246Z,100896.59
2019-02-19T15:28:50.890Z,100893.27
2019-02-19T15:31:38.541Z,100893.88
2019-02-19T15:34:26.167Z,100901.02
2019-02-19T15:37:13.806Z,100897.84
2019-02-19T15:40:01.433Z,100897.64
2019-02-19T15:42:57.859Z,100893.83
2019-02-19T15:45:45.489Z,100893.23
2019-02-19T15:48:33.209Z,100894.91
2019-02-19T15:51:20.856Z,100892.48
2019-02-19T15:54:08.531Z,100897.38
2019-02-19T15:56:56.170Z,100900.30
2019-02-19T15:59:41.650Z,100903.33
2019-02-19T16:02:29.296Z,100895.63
2019-02-19T16:05:17.110Z,100899.30
2019-02-19T16:20:01.050Z,100904.36
2019-02-19T16:22:48.689Z,100910.02
2019-02-19T16:25:36.293Z,100906.77
2019-02-19T16:28:24.022Z,100904.89
2019-02-19T16:31:11.691Z,100905.80
2019-02-19T16:33:59.384Z,100909.06
2019-02-19T16:36:46.998Z,100908.01
2019-02-19T16:39:34.613Z,100905.74
2019-02-19T16:42:11.716Z,100911.08
2019-02-19T16:44:59.429Z,100911.11
2019-02-19T16:47:47.064Z,100913.69
2019-02-19T16:50:34.668Z,100909.77
2019-02-19T16:53:22.279Z,100912.30
2019-02-19T16:56:00.856Z,100920.75
2019-02-19T16:58:48.537Z,100924.47
2019-02-19T17:01:29.182Z,100923.83
2019-02-19T17:04:08.607Z,100927.75
2019-02-19T17:06:58.283Z,100929.92
2019-02-19T17:09:46.267Z,100926.48
2019-02-19T17:12:34.125Z,100936.31
2019-02-19T17:15:21.847Z,100936.52
2019-02-19T17:18:09.891Z,100946.36
2019-02-19T17:20:57.753Z,100944.53
2019-02-19T17:23:43.808Z,100949.22
2019-02-19T17:26:32.135Z,100951.72
2019-02-19T17:35:20.068Z,100955.69
2019-02-19T17:41:05.467Z,100957.95
2019-02-19T17:43:57.171Z,100961.59
2019-02-19T17:49:39.138Z,100965.73
2019-02-19T17:52:26.852Z,100972.98
2019-02-19T17:55:02.614Z,100972.12
2019-02-19T17:57:50.458Z,100970.73
2019-02-19T18:00:38.293Z,100968.69
2019-02-19T18:03:25.918Z,100972.97
2019-02-19T18:06:13.560Z,100979.22
2019-02-19T18:08:50.396Z,100982.45
2019-02-19T18:11:38.012Z,100994.04
2019-02-19T18:14:25.627Z,100991.00
2019-02-19T18:17:13.257Z,100990.13
2019-02-19T18:19:41.888Z,100991.27
2019-02-19T18:22:10.533Z,100989.81
2019-02-19T18:24:39.168Z,100996.20
2019-02-19T18:27:07.822Z,101000.34
2019-02-19T18:29:36.442Z,100998.94
2019-02-19T18:32:05.110Z,100998.06
2019-02-19T18:34:33.740Z,101001.00
2019-02-19T18:37:02.486Z,101001.84
2019-02-19T18:39:31.125Z,101000.16
2019-02-19T18:41:59.743Z,101001.61
2019-02-19T18:44:28.383Z,101004.39
2019-02-19T18:46:57.055Z,101006.36
2019-02-19T18:49:25.690Z,101007.97
2019-02-19T18:51:54.299Z,101009.61
2019-02-19T18:54:23.020Z,101017.63
2019-02-19T18:56:51.646Z,101018.82
2019-02-19T18:59:20.253Z,101017.05
2019-02-19T19:01:48.908Z,101012.13
2019-02-19T19:04:17.578Z,101025.76
2019-02-19T19:06:46.218Z,101021.25
2019-02-19T19:09:14.857Z,101022.38
2019-02-19T19:11:43.464Z,101025.99
2019-02-19T19:14:12.097Z,101030.02
2019-02-19T19:16:40.845Z,101039.35
2019-02-19T19:19:09.495Z,101036.02
2019-02-19T19:21:38.204Z,101041.27
2019-02-19T19:24:06.844Z,101042.91
2019-02-19T19:26:35.493Z,101046.81
2019-02-19T19:29:04.280Z,101048.41
2019-02-19T19:31:34.089Z,101053.23
2019-02-19T19:34:03.810Z,101054.36
2019-02-19T19:36:32.650Z,101058.59
2019-02-19T19:39:01.532Z,101060.50
2019-02-19T19:41:30.334Z,101061.36
2019-02-19T19:43:59.101Z,101065.16
2019-02-19T19:46:27.846Z,101065.38
2019-02-19T19:48:57.033Z,101066.47
2019-02-19T19:51:25.810Z,101069.98
2019-02-19T19:53:54.498Z,101064.36
2019-02-19T19:56:23.293Z,101075.77
2019-02-19T19:58:51.990Z,101075.05
2019-02-19T20:01:20.749Z,101076.67
2019-02-19T20:03:49.471Z,101072.06
2019-02-19T20:06:19.118Z,101076.88
2019-02-19T20:08:47.838Z,101078.83
2019-02-19T20:11:16.521Z,101083.28
2019-02-19T20:13:45.632Z,101081.89
2019-02-19T20:16:14.528Z,101080.02
2019-02-19T20:18:43.324Z,101079.95
2019-02-19T20:21:12.147Z,101083.95
2019-02-19T20:23:40.912Z,101081.63
2019-02-19T20:28:57.515Z,101083.67
2019-02-19T20:31:26.233Z,101084.63
2019-02-19T20:33:54.998Z,101090.00
2019-02-19T20:36:23.748Z,101092.36
2019-02-19T20:38:52.500Z,101091.73
2019-02-19T20:41:24.204Z,101096.17
2019-02-19T20:43:52.932Z,101101.03
2019-02-19T20:46:21.825Z,101097.41
2019-02-19T20:48:50.582Z,101099.91
2019-02-19T20:51:19.261Z,101103.52
2019-02-19T20:53:48.028Z,101107.31
2019-02-19T20:56:16.728Z,101103.16
2019-02-19T20:58:45.480Z,101104.03
2019-02-19T21:01:14.148Z,101109.67
2019-02-19T21:03:44.142Z,101101.67
2019-02-19T21:06:53.331Z,101101.67
2019-02-19T21:09:22.035Z,101104.56
2019-02-19T21:11:50.904Z,101111.36
2019-02-19T21:14:19.630Z,101116.47
2019-02-19T21:16:48.333Z,101114.87
2019-02-19T21:19:17.124Z,101111.91
2019-02-19T21:22:05.251Z,101115.69
2019-02-19T21:24:34.121Z,101117.75
2019-02-19T21:27:02.799Z,101115.02
2019-02-19T21:29:32.231Z,101117.86
2019-02-19T21:32:01.022Z,101116.44
2019-02-19T21:34:29.760Z,101119.63
2019-02-19T21:37:01.110Z,101120.59
2019-02-19T21:39:29.871Z,101118.17
2019-02-19T21:41:59.421Z,101116.28
2019-02-19T21:44:28.089Z,101111.96
2019-02-19T21:46:56.924Z,101117.19
2019-02-19T21:49:25.817Z,101120.59
2019-02-19T21:51:54.546Z,101122.31
2019-02-19T21:54:23.325Z,101127.38
2019-02-19T21:56:52.264Z,101132.50
2019-02-19T21:59:23.393Z,101126.75
2019-02-19T22:01:52.159Z,101127.02
2019-02-19T22:04:20.891Z,101130.30
2019-02-19T22:06:50.026Z,101121.06
2019-02-19T22:09:18.764Z,101127.66
2019-02-19T22:11:47.639Z,101122.92
2019-02-19T22:14:16.428Z,101130.98
2019-02-19T22:16:45.153Z,101135.79
2019-02-19T22:19:13.990Z,101127.39
2019-02-19T22:24:53.226Z,101138.12
2019-02-19T22:27:22.012Z,101130.30
2019-02-19T22:29:50.862Z,101135.42
2019-02-19T22:35:09.371Z,101136.84
2019-02-19T22:37:38.041Z,101139.11
2019-02-19T22:40:06.857Z,101138.87
2019-02-19T22:42:36.072Z,101132.57
2019-02-19T22:45:44.522Z,101128.37
2019-02-19T22:48:13.205Z,101134.45
2019-02-19T22:50:41.933Z,101128.75
2019-02-19T22:53:29.606Z,101134.87
2019-02-19T22:56:06.823Z,101132.94
2019-02-19T22:58:35.577Z,101144.31
2019-02-19T23:01:44.045Z,101140.25
2019-02-19T23:04:13.043Z,101141.52
2019-02-19T23:06:41.890Z,101141.55
2019-02-19T23:09:10.584Z,101143.60
2019-02-19T23:11:39.280Z,101150.30
2019-02-19T23:14:08.385Z,101157.98
2019-02-19T23:16:37.155Z,101162.16
2019-02-19T23:19:24.958Z,101158.35
2019-02-19T23:21:53.739Z,101153.83
2019-02-19T23:24:22.554Z,101156.46
2019-02-19T23:26:51.505Z,101155.86
2019-02-19T23:29:20.181Z,101161.25
2019-02-19T23:31:49.003Z,101159.23
2019-02-19T23:34:17.812Z,101158.63
2019-02-19T23:39:44.071Z,101162.59
2019-02-19T23:42:14.002Z,101167.64
2019-02-19T23:44:42.651Z,101167.28
2019-02-19T23:47:11.364Z,101169.55
2019-02-19T23:49:39.993Z,101157.09
2019-02-19T23:52:08.697Z,101160.67
2019-02-19T23:54:37.408Z,101160.80
2019-02-19T23:57:06.031Z,101167.02
2019-02-19T23:59:34.691Z,101161.40
